Time,TemperatureF,DewpointF,PressureIn,WindDirection,WindDirectionDegrees,WindSpeedMPH,WindSpeedGustMPH,Humidity,HourlyPrecipIn,Conditions,Clouds,dailyrainin,SoftwareType,DateUTC
2013-02-23 00:07:00,48.6,-99.9,30.23,NE,45,0.0,-999.0,0,-99.99,,,0.00,weatherlink.com 1.10,2013-02-23 08:07:00,
2013-02-23 00:22:00,48.2,-99.9,30.22,NE,45,0.0,-999.0,0,-99.99,,,0.00,weatherlink.com 1.10,2013-02-23 08:22:00,
2013-02-23 00:37:00,47.8,-99.9,30.22,NE,45,3.0,-999.0,0,-99.99,,,0.00,weatherlink.com 1.10,2013-02-23 08:37:00,
2013-02-23 00:52:00,47.6,-99.9,30.22,NE,46,2.0,-999.0,0,-99.99,,,0.00,weatherlink.com 1.10,2013-02-23 08:52:00,
2013-02-23 01:07:00,47.9,-99.9,30.22,NE,46,0.0,-999.0,0,-99.99,,,0.00,weatherlink.com 1.10,2013-02-23 09:07:00,
2013-02-23 01:22:00,47.9,-99.9,30.21,NE,46,0.0,-999.0,0,-99.99,,,0.00,weatherlink.com 1.10,2013-02-23 09:22:00,
2013-02-23 01:37:00,47.8,-99.9,30.22,NE,46,0.0,-999.0,0,-99.99,,,0.00,weatherlink.com 1.10,2013-02-23 09:37:00,
2013-02-23 01:52:00,48.1,-99.9,30.22,NE,46,0.0,-999.0,0,-99.99,,,0.00,weatherlink.com 1.10,2013-02-23 09:52:00,
2013-02-23 02:07:00,48.3,-99.9,30.22,NE,46,0.0,-999.0,0,-99.99,,,0.00,weatherlink.com 1.10,2013-02-23 10:07:00,
2013-02-23 02:22:00,48.6,-99.9,30.21,West,279,2.0,-999.0,0,-99.99,,,0.00,weatherlink.com 1.10,2013-02-23 10:22:00,
2013-02-23 02:37:00,48.6,-99.9,30.20,North,360,0.0,-999.0,0,-99.99,,,0.00,weatherlink.com 1.10,2013-02-23 10:37:00,
2013-02-23 02:52:00,48.1,-99.9,30.20,North,5,0.0,-999.0,0,-99.99,,,0.00,weatherlink.com 1.10,2013-02-23 10:52:00,
2013-02-23 03:07:00,47.6,-99.9,30.20,NNE,28,0.0,-999.0,0,-99.99,,,0.00,weatherlink.com 1.10,2013-02-23 11:07:00,
2013-02-23 03:22:00,47.0,-99.9,30.20,WNW,297,0.0,-999.0,0,-99.99,,,0.00,weatherlink.com 1.10,2013-02-23 11:22:00,
2013-02-23 03:37:00,46.7,-99.9,30.19,North,355,1.0,-999.0,0,-99.99,,,0.00,weatherlink.com 1.10,2013-02-23 11:37:00,
2013-02-23 03:52:00,46.2,-99.9,30.19,North,360,0.0,-999.0,0,-99.99,,,0.00,weatherlink.com 1.10,2013-02-23 11:52:00,
2013-02-23 04:07:00,45.6,-99.9,30.19,North,351,0.0,-999.0,0,-99.99,,,0.00,weatherlink.com 1.10,2013-02-23 12:07:00,
2013-02-23 04:22:00,45.1,-99.9,30.20,North,351,0.0,-999.0,0,-99.99,,,0.00,weatherlink.com 1.10,2013-02-23 12:22:00,
2013-02-23 04:37:00,45.4,-99.9,30.20,NNE,28,0.0,-999.0,0,-99.99,,,0.00,weatherlink.com 1.10,2013-02-23 12:37:00,
2013-02-23 04:52:00,45.6,-99.9,30.21,North,5,1.0,-999.0,0,-99.99,,,0.00,weatherlink.com 1.10,2013-02-23 12:52:00,
2013-02-23 05:07:00,45.5,-99.9,30.21,ENE,61,2.0,-999.0,0,-99.99,,,0.00,weatherlink.com 1.10,2013-02-23 13:07:00,
2013-02-23 05:22:00,45.7,-99.9,30.22,NNE,15,0.0,-999.0,0,-99.99,,,0.00,weatherlink.com 1.10,2013-02-23 13:22:00,
2013-02-23 05:37:00,45.4,-99.9,30.22,NE,45,3.0,-999.0,0,-99.99,,,0.00,weatherlink.com 1.10,2013-02-23 13:37:00,
2013-02-23 05:52:00,45.5,-99.9,30.23,NE,41,0.0,-999.0,0,-99.99,,,0.00,weatherlink.com 1.10,2013-02-23 13:52:00,
2013-02-23 06:07:00,45.2,-99.9,30.25,North,355,4.0,-999.0,0,-99.99,,,0.00,weatherlink.com 1.10,2013-02-23 14:07:00,
2013-02-23 06:22:00,45.4,-11.0,30.25,NNE,17,0.0,-999.0,9,-99.99,,,0.00,weatherlink.com 1.10,2013-02-23 14:22:00,
2013-02-23 06:37:00,45.3,7.0,30.25,North,355,0.0,-999.0,21,-99.99,,,0.00,weatherlink.com 1.10,2013-02-23 14:37:00,
2013-02-23 06:52:00,45.4,15.0,30.26,NE,47,0.0,-999.0,29,-99.99,,,0.00,weatherlink.com 1.10,2013-02-23 14:52:00,
2013-02-23 07:07:00,45.5,18.0,30.27,NNE,29,0.0,-999.0,33,-99.99,,,0.00,weatherlink.com 1.10,2013-02-23 15:07:00,
2013-02-23 07:22:00,45.2,18.0,30.27,North,355,0.0,-999.0,34,-99.99,,,0.00,weatherlink.com 1.10,2013-02-23 15:22:00,
2013-02-23 07:37:00,45.1,19.0,30.28,NNE,13,2.0,-999.0,35,-99.99,,,0.00,weatherlink.com 1.10,2013-02-23 15:37:00,
2013-02-23 07:52:00,45.1,18.0,30.28,North,11,0.0,-999.0,34,-99.99,,,0.00,weatherlink.com 1.10,2013-02-23 15:52:00,
2013-02-23 08:07:00,45.9,21.0,30.28,NW,314,3.0,-999.0,38,-99.99,,,0.00,weatherlink.com 1.10,2013-02-23 16:07:00,
2013-02-23 08:22:00,47.2,25.0,30.30,NNE,22,0.0,-999.0,42,-99.99,,,0.00,weatherlink.com 1.10,2013-02-23 16:22:00,
2013-02-23 08:37:00,48.0,26.0,30.30,West,278,0.0,-999.0,42,-99.99,,,0.00,weatherlink.com 1.10,2013-02-23 16:37:00,
2013-02-23 08:52:00,48.7,27.0,30.30,NE,50,1.0,-999.0,43,-99.99,,,0.00,weatherlink.com 1.10,2013-02-23 16:52:00,
2013-02-23 09:07:00,49.5,28.0,30.31,NNE,14,0.0,-999.0,44,-99.99,,,0.00,weatherlink.com 1.10,2013-02-23 17:07:00,
2013-02-23 09:22:00,50.3,29.0,30.31,NNE,13,2.0,-999.0,44,-99.99,,,0.00,weatherlink.com 1.10,2013-02-23 17:22:00,
2013-02-23 09:37:00,51.5,29.0,30.31,North,9,3.0,-999.0,43,-99.99,,,0.00,weatherlink.com 1.10,2013-02-23 17:37:00,
2013-02-23 10:07:00,53.0,29.0,30.31,NE,46,0.0,-999.0,40,-99.99,,,0.00,weatherlink.com 1.10,2013-02-23 18:07:00,
2013-02-23 10:22:00,53.1,29.0,30.31,NNW,342,0.0,-999.0,40,-99.99,,,0.00,weatherlink.com 1.10,2013-02-23 18:22:00,
2013-02-23 10:37:00,54.1,29.0,30.31,East,79,3.0,-999.0,39,-99.99,,,0.00,weatherlink.com 1.10,2013-02-23 18:37:00,
2013-02-23 10:52:00,56.2,29.0,30.31,North,5,3.0,-999.0,36,-99.99,,,0.00,weatherlink.com 1.10,2013-02-23 18:52:00,
2013-02-23 11:07:00,57.8,29.0,30.31,North,355,5.0,-999.0,33,-99.99,,,0.00,weatherlink.com 1.10,2013-02-23 19:07:00,
2013-02-23 11:22:00,57.0,28.0,30.30,West,281,0.0,-999.0,33,-99.99,,,0.00,weatherlink.com 1.10,2013-02-23 19:22:00,
2013-02-23 11:37:00,58.2,34.0,30.30,NW,313,10.0,-999.0,40,-99.99,,,0.00,weatherlink.com 1.10,2013-02-23 19:37:00,
2013-02-23 11:52:00,55.8,33.0,30.29,West,277,16.0,-999.0,43,-99.99,,,0.00,weatherlink.com 1.10,2013-02-23 19:52:00,
2013-02-23 12:07:00,55.3,33.0,30.29,WNW,286,15.0,-999.0,43,-99.99,,,0.00,weatherlink.com 1.10,2013-02-23 20:07:00,
2013-02-23 12:22:00,55.8,33.0,30.28,West,279,3.0,-999.0,43,-99.99,,,0.00,weatherlink.com 1.10,2013-02-23 20:22:00,
2013-02-23 12:37:00,56.8,34.0,30.27,West,277,10.0,-999.0,42,-99.99,,,0.00,weatherlink.com 1.10,2013-02-23 20:37:00,
2013-02-23 12:52:00,56.7,34.0,30.26,WNW,284,5.0,-999.0,42,-99.99,,,0.00,weatherlink.com 1.10,2013-02-23 20:52:00,
2013-02-23 13:07:00,56.2,34.0,30.26,NW,304,10.0,-999.0,43,-99.99,,,0.00,weatherlink.com 1.10,2013-02-23 21:07:00,
2013-02-23 13:22:00,55.8,33.0,30.25,West,279,12.0,-999.0,43,-99.99,,,0.00,weatherlink.com 1.10,2013-02-23 21:22:00,
2013-02-23 13:37:00,55.6,34.0,30.24,WNW,288,15.0,-999.0,44,-99.99,,,0.00,weatherlink.com 1.10,2013-02-23 21:37:00,
2013-02-23 13:52:00,55.5,33.0,30.23,NW,313,9.0,-999.0,43,-99.99,,,0.00,weatherlink.com 1.10,2013-02-23 21:52:00,
2013-02-23 14:07:00,56.0,34.0,30.23,WSW,244,2.0,-999.0,43,-99.99,,,0.00,weatherlink.com 1.10,2013-02-23 22:07:00,
2013-02-23 14:22:00,55.8,34.0,30.24,NW,315,12.0,-999.0,44,-99.99,,,0.00,weatherlink.com 1.10,2013-02-23 22:22:00,
2013-02-23 14:37:00,55.4,34.0,30.23,WNW,296,9.0,-999.0,44,-99.99,,,0.00,weatherlink.com 1.10,2013-02-23 22:37:00,
2013-02-23 14:52:00,55.0,33.0,30.23,North,360,2.0,-999.0,44,-99.99,,,0.00,weatherlink.com 1.10,2013-02-23 22:52:00,
2013-02-23 15:07:00,55.8,33.0,30.22,WNW,286,6.0,-999.0,43,-99.99,,,0.00,weatherlink.com 1.10,2013-02-23 23:07:00,
2013-02-23 15:22:00,56.1,34.0,30.22,WNW,291,17.0,-999.0,44,-99.99,,,0.00,weatherlink.com 1.10,2013-02-23 23:22:00,
2013-02-23 15:37:00,55.8,33.0,30.23,WNW,284,9.0,-999.0,43,-99.99,,,0.00,weatherlink.com 1.10,2013-02-23 23:37:00,
2013-02-23 15:52:00,55.9,33.0,30.22,WNW,286,9.0,-999.0,43,-99.99,,,0.00,weatherlink.com 1.10,2013-02-23 23:52:00,
2013-02-23 16:07:00,56.3,34.0,30.22,West,279,10.0,-999.0,43,-99.99,,,0.00,weatherlink.com 1.10,2013-02-24 00:07:00,
2013-02-23 16:22:00,56.1,34.0,30.23,NW,304,4.0,-999.0,43,-99.99,,,0.00,weatherlink.com 1.10,2013-02-24 00:22:00,
2013-02-23 16:37:00,55.3,33.0,30.23,West,278,5.0,-999.0,43,-99.99,,,0.00,weatherlink.com 1.10,2013-02-24 00:37:00,
2013-02-23 16:52:00,53.3,32.0,30.24,ENE,62,4.0,-999.0,44,-99.99,,,0.00,weatherlink.com 1.10,2013-02-24 00:52:00,
2013-02-23 17:07:00,52.0,31.0,30.23,North,5,0.0,-999.0,44,-99.99,,,0.00,weatherlink.com 1.10,2013-02-24 01:07:00,
2013-02-23 17:22:00,50.9,29.0,30.24,NNW,341,7.0,-999.0,43,-99.99,,,0.00,weatherlink.com 1.10,2013-02-24 01:22:00,
2013-02-23 17:37:00,49.8,27.0,30.24,NNW,340,0.0,-999.0,41,-99.99,,,0.00,weatherlink.com 1.10,2013-02-24 01:37:00,
2013-02-23 17:52:00,49.0,24.0,30.24,NNE,15,1.0,-999.0,37,-99.99,,,0.00,weatherlink.com 1.10,2013-02-24 01:52:00,
2013-02-23 18:07:00,48.2,19.0,30.24,North,360,1.0,-999.0,32,-99.99,,,0.00,weatherlink.com 1.10,2013-02-24 02:07:00,
2013-02-23 18:22:00,47.5,15.0,30.24,WNW,303,0.0,-999.0,27,-99.99,,,0.00,weatherlink.com 1.10,2013-02-24 02:22:00,
2013-02-23 18:37:00,47.1,17.0,30.24,North,11,0.0,-999.0,30,-99.99,,,0.00,weatherlink.com 1.10,2013-02-24 02:37:00,
2013-02-23 18:52:00,46.8,17.0,30.25,SSW,202,0.0,-999.0,30,-99.99,,,0.00,weatherlink.com 1.10,2013-02-24 02:52:00,
2013-02-23 19:07:00,46.2,18.0,30.26,NNE,17,0.0,-999.0,32,-99.99,,,0.00,weatherlink.com 1.10,2013-02-24 03:07:00,
2013-02-23 19:22:00,46.1,18.0,30.26,North,5,0.0,-999.0,32,-99.99,,,0.00,weatherlink.com 1.10,2013-02-24 03:22:00,
2013-02-23 19:37:00,45.7,16.0,30.25,North,5,0.0,-999.0,30,-99.99,,,0.00,weatherlink.com 1.10,2013-02-24 03:37:00,
2013-02-23 19:52:00,45.6,14.0,30.25,North,5,0.0,-999.0,28,-99.99,,,0.00,weatherlink.com 1.10,2013-02-24 03:52:00,
2013-02-23 20:07:00,44.8,10.0,30.26,North,5,0.0,-999.0,24,-99.99,,,0.00,weatherlink.com 1.10,2013-02-24 04:07:00,
2013-02-23 20:22:00,44.4,6.0,30.26,NNE,24,0.0,-999.0,20,-99.99,,,0.00,weatherlink.com 1.10,2013-02-24 04:22:00,
2013-02-23 20:37:00,44.5,3.0,30.26,NE,38,0.0,-999.0,18,-99.99,,,0.00,weatherlink.com 1.10,2013-02-24 04:37:00,
2013-02-23 21:07:00,45.1,3.0,30.27,NNE,22,0.0,-999.0,17,-99.99,,,0.00,weatherlink.com 1.10,2013-02-24 05:07:00,
2013-02-23 21:22:00,44.7,2.0,30.27,NNE,22,0.0,-999.0,17,-99.99,,,0.00,weatherlink.com 1.10,2013-02-24 05:22:00,
2013-02-23 21:37:00,44.2,-1.0,30.27,NE,49,2.0,-999.0,15,-99.99,,,0.00,weatherlink.com 1.10,2013-02-24 05:37:00,
2013-02-23 21:52:00,44.2,-6.0,30.27,NE,49,0.0,-999.0,12,-99.99,,,0.00,weatherlink.com 1.10,2013-02-24 05:52:00,
2013-02-23 22:07:00,44.7,-4.0,30.28,NE,49,0.0,-999.0,13,-99.99,,,0.00,weatherlink.com 1.10,2013-02-24 06:07:00,
2013-02-23 22:22:00,44.6,-2.0,30.28,NE,49,0.0,-999.0,14,-99.99,,,0.00,weatherlink.com 1.10,2013-02-24 06:22:00,
2013-02-23 22:37:00,44.2,-4.0,30.27,NE,49,0.0,-999.0,13,-99.99,,,0.00,weatherlink.com 1.10,2013-02-24 06:37:00,
2013-02-23 22:52:00,44.7,-4.0,30.28,NE,49,0.0,-999.0,13,-99.99,,,0.00,weatherlink.com 1.10,2013-02-24 06:52:00,
2013-02-23 23:07:00,44.9,-2.0,30.29,NE,49,0.0,-999.0,14,-99.99,,,0.00,weatherlink.com 1.10,2013-02-24 07:07:00,
2013-02-23 23:22:00,44.3,-2.0,30.28,NE,49,0.0,-999.0,14,-99.99,,,0.00,weatherlink.com 1.10,2013-02-24 07:22:00,
2013-02-23 23:37:00,43.2,-10.0,30.28,NE,49,0.0,-999.0,10,-99.99,,,0.00,weatherlink.com 1.10,2013-02-24 07:37:00,
2013-02-23 23:52:00,42.9,-99.9,30.28,NNE,16,0.0,-999.0,0,-99.99,,,0.00,weatherlink.com 1.10,2013-02-24 07:52:00,